sensor_id;sensor_type;location;lat;lon;timestamp;P1;durP1;ratioP1;P2;durP2;ratioP2
59040;SDS011;44825;53.200;6.448;2022-08-01T00:00:34;6.43;;;3.60;;
59040;SDS011;44825;53.200;6.448;2022-08-01T00:03:01;6.55;;;3.55;;
59040;SDS011;44825;53.200;6.448;2022-08-01T00:05:29;6.18;;;3.20;;
59040;SDS011;44825;53.200;6.448;2022-08-01T00:07:57;9.77;;;3.20;;
59040;SDS011;44825;53.200;6.448;2022-08-01T00:10:24;5.22;;;2.75;;
59040;SDS011;44825;53.200;6.448;2022-08-01T00:12:51;5.57;;;2.95;;
59040;SDS011;44825;53.200;6.448;2022-08-01T00:15:19;7.03;;;2.20;;
59040;SDS011;44825;53.200;6.448;2022-08-01T00:17:47;6.38;;;2.33;;
59040;SDS011;44825;53.200;6.448;2022-08-01T00:20:15;4.40;;;2.33;;
59040;SDS011;44825;53.200;6.448;2022-08-01T00:22:42;6.38;;;2.30;;
59040;SDS011;44825;53.200;6.448;2022-08-01T00:25:09;4.60;;;2.33;;
59040;SDS011;44825;53.200;6.448;2022-08-01T00:27:36;4.85;;;2.53;;
59040;SDS011;44825;53.200;6.448;2022-08-01T00:30:04;3.45;;;2.05;;
59040;SDS011;44825;53.200;6.448;2022-08-01T00:32:33;5.35;;;2.90;;
59040;SDS011;44825;53.200;6.448;2022-08-01T00:35:01;5.35;;;2.13;;
59040;SDS011;44825;53.200;6.448;2022-08-01T00:37:29;4.45;;;2.00;;
59040;SDS011;44825;53.200;6.448;2022-08-01T00:39:56;5.63;;;2.20;;
59040;SDS011;44825;53.200;6.448;2022-08-01T00:42:23;5.63;;;2.45;;
59040;SDS011;44825;53.200;6.448;2022-08-01T00:44:51;8.43;;;2.42;;
59040;SDS011;44825;53.200;6.448;2022-08-01T00:47:18;8.18;;;2.60;;
59040;SDS011;44825;53.200;6.448;2022-08-01T00:49:45;8.50;;;3.75;;
59040;SDS011;44825;53.200;6.448;2022-08-01T00:52:15;8.70;;;3.10;;
59040;SDS011;44825;53.200;6.448;2022-08-01T00:54:42;5.00;;;2.53;;
59040;SDS011;44825;53.200;6.448;2022-08-01T00:57:10;6.95;;;3.40;;
59040;SDS011;44825;53.200;6.448;2022-08-01T00:59:38;5.55;;;3.50;;
59040;SDS011;44825;53.200;6.448;2022-08-01T01:02:07;4.70;;;2.92;;
59040;SDS011;44825;53.200;6.448;2022-08-01T01:04:34;5.80;;;2.75;;
59040;SDS011;44825;53.200;6.448;2022-08-01T01:07:03;7.55;;;2.97;;
59040;SDS011;44825;53.200;6.448;2022-08-01T01:09:39;7.32;;;3.17;;
59040;SDS011;44825;53.200;6.448;2022-08-01T01:12:16;6.03;;;2.70;;
59040;SDS011;44825;53.200;6.448;2022-08-01T01:14:51;6.63;;;2.65;;
59040;SDS011;44825;53.200;6.448;2022-08-01T01:17:24;8.23;;;2.70;;
59040;SDS011;44825;53.200;6.448;2022-08-01T01:19:57;8.52;;;2.15;;
59040;SDS011;44825;53.200;6.448;2022-08-01T01:22:35;7.13;;;2.28;;
59040;SDS011;44825;53.200;6.448;2022-08-01T01:25:24;5.97;;;1.77;;
59040;SDS011;44825;53.200;6.448;2022-08-01T01:28:02;4.18;;;1.63;;
59040;SDS011;44825;53.200;6.448;2022-08-01T01:30:41;9.15;;;2.10;;
59040;SDS011;44825;53.200;6.448;2022-08-01T01:33:10;7.72;;;1.63;;
59040;SDS011;44825;53.200;6.448;2022-08-01T01:35:41;7.35;;;1.77;;
59040;SDS011;44825;53.200;6.448;2022-08-01T01:38:14;6.78;;;2.03;;
59040;SDS011;44825;53.200;6.448;2022-08-01T01:40:45;7.60;;;1.65;;
59040;SDS011;44825;53.200;6.448;2022-08-01T01:43:14;4.70;;;1.48;;
59040;SDS011;44825;53.200;6.448;2022-08-01T01:45:45;6.15;;;1.70;;
59040;SDS011;44825;53.200;6.448;2022-08-01T01:48:14;7.03;;;2.13;;
59040;SDS011;44825;53.200;6.448;2022-08-01T01:50:45;7.75;;;1.98;;
59040;SDS011;44825;53.200;6.448;2022-08-01T01:53:15;6.82;;;2.35;;
59040;SDS011;44825;53.200;6.448;2022-08-01T01:55:46;5.05;;;1.50;;
59040;SDS011;44825;53.200;6.448;2022-08-01T01:58:18;5.80;;;1.70;;
59040;SDS011;44825;53.200;6.448;2022-08-01T02:00:48;8.48;;;1.77;;
59040;SDS011;44825;53.200;6.448;2022-08-01T02:03:18;7.95;;;1.40;;
59040;SDS011;44825;53.200;6.448;2022-08-01T02:05:47;8.57;;;2.15;;
59040;SDS011;44825;53.200;6.448;2022-08-01T02:08:16;7.00;;;2.00;;
59040;SDS011;44825;53.200;6.448;2022-08-01T02:10:44;5.25;;;1.60;;
59040;SDS011;44825;53.200;6.448;2022-08-01T02:13:34;6.43;;;1.58;;
59040;SDS011;44825;53.200;6.448;2022-08-01T02:16:06;5.95;;;1.50;;
59040;SDS011;44825;53.200;6.448;2022-08-01T02:18:36;5.25;;;1.55;;
59040;SDS011;44825;53.200;6.448;2022-08-01T02:21:04;9.73;;;2.00;;
59040;SDS011;44825;53.200;6.448;2022-08-01T02:23:35;10.10;;;2.05;;
59040;SDS011;44825;53.200;6.448;2022-08-01T02:26:05;10.38;;;1.77;;
59040;SDS011;44825;53.200;6.448;2022-08-01T02:28:37;9.27;;;2.38;;
59040;SDS011;44825;53.200;6.448;2022-08-01T02:31:10;10.15;;;3.17;;
59040;SDS011;44825;53.200;6.448;2022-08-01T02:33:40;8.25;;;2.30;;
59040;SDS011;44825;53.200;6.448;2022-08-01T02:36:10;9.57;;;2.38;;
59040;SDS011;44825;53.200;6.448;2022-08-01T02:38:40;10.25;;;2.30;;
59040;SDS011;44825;53.200;6.448;2022-08-01T02:41:10;10.00;;;3.03;;
59040;SDS011;44825;53.200;6.448;2022-08-01T02:43:42;12.05;;;2.83;;
59040;SDS011;44825;53.200;6.448;2022-08-01T02:46:16;22.60;;;3.15;;
59040;SDS011;44825;53.200;6.448;2022-08-01T02:48:46;6.45;;;2.45;;
59040;SDS011;44825;53.200;6.448;2022-08-01T02:51:17;20.60;;;3.70;;
59040;SDS011;44825;53.200;6.448;2022-08-01T02:53:46;13.02;;;3.22;;
59040;SDS011;44825;53.200;6.448;2022-08-01T02:56:14;11.18;;;2.60;;
59040;SDS011;44825;53.200;6.448;2022-08-01T02:58:44;13.13;;;3.08;;
59040;SDS011;44825;53.200;6.448;2022-08-01T03:01:12;10.95;;;2.58;;
59040;SDS011;44825;53.200;6.448;2022-08-01T03:03:42;9.63;;;2.13;;
59040;SDS011;44825;53.200;6.448;2022-08-01T03:06:10;9.05;;;3.50;;
59040;SDS011;44825;53.200;6.448;2022-08-01T03:08:39;9.45;;;2.95;;
59040;SDS011;44825;53.200;6.448;2022-08-01T03:11:07;8.70;;;2.53;;
59040;SDS011;44825;53.200;6.448;2022-08-01T03:13:36;12.02;;;3.45;;
59040;SDS011;44825;53.200;6.448;2022-08-01T03:16:04;9.45;;;2.90;;
59040;SDS011;44825;53.200;6.448;2022-08-01T03:18:33;13.88;;;3.13;;
59040;SDS011;44825;53.200;6.448;2022-08-01T03:21:02;7.88;;;2.13;;
59040;SDS011;44825;53.200;6.448;2022-08-01T03:23:30;9.20;;;2.95;;
59040;SDS011;44825;53.200;6.448;2022-08-01T03:26:00;10.75;;;2.70;;
59040;SDS011;44825;53.200;6.448;2022-08-01T03:28:28;11.45;;;3.00;;
59040;SDS011;44825;53.200;6.448;2022-08-01T03:30:57;12.23;;;3.35;;
59040;SDS011;44825;53.200;6.448;2022-08-01T03:33:25;14.05;;;2.35;;
59040;SDS011;44825;53.200;6.448;2022-08-01T03:35:54;12.73;;;2.92;;
59040;SDS011;44825;53.200;6.448;2022-08-01T03:38:23;15.48;;;2.58;;
59040;SDS011;44825;53.200;6.448;2022-08-01T03:40:54;10.82;;;2.20;;
59040;SDS011;44825;53.200;6.448;2022-08-01T03:43:26;14.25;;;3.05;;
59040;SDS011;44825;53.200;6.448;2022-08-01T03:45:59;12.55;;;3.25;;
59040;SDS011;44825;53.200;6.448;2022-08-01T03:48:30;8.50;;;2.83;;
59040;SDS011;44825;53.200;6.448;2022-08-01T03:51:03;13.45;;;2.22;;
59040;SDS011;44825;53.200;6.448;2022-08-01T03:53:32;16.48;;;3.15;;
59040;SDS011;44825;53.200;6.448;2022-08-01T03:56:01;9.52;;;2.70;;
59040;SDS011;44825;53.200;6.448;2022-08-01T03:58:30;12.90;;;3.17;;
59040;SDS011;44825;53.200;6.448;2022-08-01T04:00:58;18.65;;;2.92;;
59040;SDS011;44825;53.200;6.448;2022-08-01T04:03:25;12.77;;;3.17;;
59040;SDS011;44825;53.200;6.448;2022-08-01T04:05:53;10.80;;;2.83;;
59040;SDS011;44825;53.200;6.448;2022-08-01T04:08:22;10.27;;;3.00;;
59040;SDS011;44825;53.200;6.448;2022-08-01T04:10:49;9.60;;;2.72;;
59040;SDS011;44825;53.200;6.448;2022-08-01T04:13:17;12.98;;;2.85;;
59040;SDS011;44825;53.200;6.448;2022-08-01T04:15:44;14.38;;;3.13;;
59040;SDS011;44825;53.200;6.448;2022-08-01T04:18:11;15.35;;;2.78;;
59040;SDS011;44825;53.200;6.448;2022-08-01T04:20:39;10.82;;;2.45;;
59040;SDS011;44825;53.200;6.448;2022-08-01T04:23:06;9.90;;;2.78;;
59040;SDS011;44825;53.200;6.448;2022-08-01T04:25:37;16.70;;;2.95;;
59040;SDS011;44825;53.200;6.448;2022-08-01T04:28:08;15.85;;;3.03;;
59040;SDS011;44825;53.200;6.448;2022-08-01T04:30:42;9.85;;;2.30;;
59040;SDS011;44825;53.200;6.448;2022-08-01T04:33:13;14.23;;;3.60;;
59040;SDS011;44825;53.200;6.448;2022-08-01T04:35:42;12.95;;;2.65;;
59040;SDS011;44825;53.200;6.448;2022-08-01T04:38:12;18.58;;;3.90;;
59040;SDS011;44825;53.200;6.448;2022-08-01T04:40:43;11.07;;;2.65;;
59040;SDS011;44825;53.200;6.448;2022-08-01T04:43:11;13.50;;;3.03;;
59040;SDS011;44825;53.200;6.448;2022-08-01T04:45:39;11.27;;;2.50;;
59040;SDS011;44825;53.200;6.448;2022-08-01T04:48:09;15.50;;;3.72;;
59040;SDS011;44825;53.200;6.448;2022-08-01T04:50:40;12.65;;;2.83;;
59040;SDS011;44825;53.200;6.448;2022-08-01T04:53:11;18.00;;;2.75;;
59040;SDS011;44825;53.200;6.448;2022-08-01T04:55:40;17.35;;;3.55;;
59040;SDS011;44825;53.200;6.448;2022-08-01T04:58:09;20.70;;;3.58;;
59040;SDS011;44825;53.200;6.448;2022-08-01T05:00:37;15.68;;;3.17;;
59040;SDS011;44825;53.200;6.448;2022-08-01T05:03:04;13.32;;;2.90;;
59040;SDS011;44825;53.200;6.448;2022-08-01T05:05:31;12.68;;;2.65;;
59040;SDS011;44825;53.200;6.448;2022-08-01T05:07:59;13.90;;;2.70;;
59040;SDS011;44825;53.200;6.448;2022-08-01T05:10:26;18.50;;;3.30;;
59040;SDS011;44825;53.200;6.448;2022-08-01T05:12:54;16.48;;;2.72;;
59040;SDS011;44825;53.200;6.448;2022-08-01T05:15:23;19.88;;;3.00;;
59040;SDS011;44825;53.200;6.448;2022-08-01T05:17:50;16.80;;;3.63;;
59040;SDS011;44825;53.200;6.448;2022-08-01T05:20:18;19.30;;;3.47;;
59040;SDS011;44825;53.200;6.448;2022-08-01T05:22:45;17.17;;;3.72;;
59040;SDS011;44825;53.200;6.448;2022-08-01T05:25:12;14.20;;;2.78;;
59040;SDS011;44825;53.200;6.448;2022-08-01T05:27:39;12.43;;;3.22;;
59040;SDS011;44825;53.200;6.448;2022-08-01T05:30:07;15.60;;;2.75;;
59040;SDS011;44825;53.200;6.448;2022-08-01T05:32:37;13.18;;;3.08;;
59040;SDS011;44825;53.200;6.448;2022-08-01T05:35:05;18.20;;;3.38;;
59040;SDS011;44825;53.200;6.448;2022-08-01T05:37:33;14.10;;;3.15;;
59040;SDS011;44825;53.200;6.448;2022-08-01T05:40:01;16.40;;;3.03;;
59040;SDS011;44825;53.200;6.448;2022-08-01T05:42:29;13.23;;;2.97;;
59040;SDS011;44825;53.200;6.448;2022-08-01T05:44:56;15.65;;;3.38;;
59040;SDS011;44825;53.200;6.448;2022-08-01T05:47:24;14.35;;;3.45;;
59040;SDS011;44825;53.200;6.448;2022-08-01T05:49:52;24.70;;;3.90;;
59040;SDS011;44825;53.200;6.448;2022-08-01T05:52:20;15.48;;;3.08;;
59040;SDS011;44825;53.200;6.448;2022-08-01T05:54:47;15.38;;;3.38;;
59040;SDS011;44825;53.200;6.448;2022-08-01T05:57:14;16.60;;;3.63;;
59040;SDS011;44825;53.200;6.448;2022-08-01T05:59:42;17.15;;;3.58;;
59040;SDS011;44825;53.200;6.448;2022-08-01T06:02:09;19.17;;;3.28;;
59040;SDS011;44825;53.200;6.448;2022-08-01T06:04:36;15.73;;;3.33;;
59040;SDS011;44825;53.200;6.448;2022-08-01T06:07:05;15.88;;;3.17;;
59040;SDS011;44825;53.200;6.448;2022-08-01T06:09:32;14.32;;;3.30;;
59040;SDS011;44825;53.200;6.448;2022-08-01T06:12:00;25.70;;;3.95;;
59040;SDS011;44825;53.200;6.448;2022-08-01T06:14:28;14.75;;;3.03;;
59040;SDS011;44825;53.200;6.448;2022-08-01T06:16:56;14.55;;;2.97;;
59040;SDS011;44825;53.200;6.448;2022-08-01T06:19:23;11.48;;;3.13;;
59040;SDS011;44825;53.200;6.448;2022-08-01T06:21:51;17.10;;;3.13;;
59040;SDS011;44825;53.200;6.448;2022-08-01T06:24:20;16.38;;;3.20;;
59040;SDS011;44825;53.200;6.448;2022-08-01T06:26:48;11.07;;;2.40;;
59040;SDS011;44825;53.200;6.448;2022-08-01T06:29:16;15.10;;;2.75;;
59040;SDS011;44825;53.200;6.448;2022-08-01T06:31:43;17.42;;;3.28;;
59040;SDS011;44825;53.200;6.448;2022-08-01T06:34:10;16.00;;;3.20;;
59040;SDS011;44825;53.200;6.448;2022-08-01T06:36:37;12.52;;;2.97;;
59040;SDS011;44825;53.200;6.448;2022-08-01T06:39:05;14.93;;;3.00;;
59040;SDS011;44825;53.200;6.448;2022-08-01T06:41:33;14.32;;;3.40;;
59040;SDS011;44825;53.200;6.448;2022-08-01T06:44:01;12.13;;;2.80;;
59040;SDS011;44825;53.200;6.448;2022-08-01T06:46:29;15.77;;;2.70;;
59040;SDS011;44825;53.200;6.448;2022-08-01T06:48:57;9.68;;;2.75;;
59040;SDS011;44825;53.200;6.448;2022-08-01T06:51:24;18.35;;;2.92;;
59040;SDS011;44825;53.200;6.448;2022-08-01T06:53:52;12.75;;;2.90;;
59040;SDS011;44825;53.200;6.448;2022-08-01T06:56:19;10.68;;;2.10;;
59040;SDS011;44825;53.200;6.448;2022-08-01T06:58:48;10.95;;;2.58;;
59040;SDS011;44825;53.200;6.448;2022-08-01T07:01:16;11.35;;;2.00;;
59040;SDS011;44825;53.200;6.448;2022-08-01T07:03:43;12.77;;;2.63;;
59040;SDS011;44825;53.200;6.448;2022-08-01T07:06:10;16.88;;;3.78;;
59040;SDS011;44825;53.200;6.448;2022-08-01T07:08:38;15.05;;;2.95;;
59040;SDS011;44825;53.200;6.448;2022-08-01T07:11:05;14.52;;;2.63;;
59040;SDS011;44825;53.200;6.448;2022-08-01T07:13:32;13.35;;;2.88;;
59040;SDS011;44825;53.200;6.448;2022-08-01T07:16:01;11.35;;;2.35;;
59040;SDS011;44825;53.200;6.448;2022-08-01T07:18:28;15.30;;;2.50;;
59040;SDS011;44825;53.200;6.448;2022-08-01T07:20:56;13.18;;;2.67;;
59040;SDS011;44825;53.200;6.448;2022-08-01T07:23:23;12.57;;;2.60;;
59040;SDS011;44825;53.200;6.448;2022-08-01T07:25:50;8.68;;;2.08;;
59040;SDS011;44825;53.200;6.448;2022-08-01T07:28:18;9.40;;;2.20;;
59040;SDS011;44825;53.200;6.448;2022-08-01T07:30:45;13.68;;;2.55;;
59040;SDS011;44825;53.200;6.448;2022-08-01T07:33:14;15.05;;;2.72;;
59040;SDS011;44825;53.200;6.448;2022-08-01T07:35:41;13.60;;;2.05;;
59040;SDS011;44825;53.200;6.448;2022-08-01T07:38:08;15.20;;;2.47;;
59040;SDS011;44825;53.200;6.448;2022-08-01T07:40:36;13.85;;;2.42;;
59040;SDS011;44825;53.200;6.448;2022-08-01T07:43:03;12.65;;;2.88;;
59040;SDS011;44825;53.200;6.448;2022-08-01T07:45:30;11.32;;;2.00;;
59040;SDS011;44825;53.200;6.448;2022-08-01T07:48:01;11.68;;;2.20;;
59040;SDS011;44825;53.200;6.448;2022-08-01T07:50:31;13.40;;;3.00;;
59040;SDS011;44825;53.200;6.448;2022-08-01T07:52:58;10.88;;;2.10;;
59040;SDS011;44825;53.200;6.448;2022-08-01T07:55:29;10.57;;;2.33;;
59040;SDS011;44825;53.200;6.448;2022-08-01T07:57:56;11.18;;;1.52;;
59040;SDS011;44825;53.200;6.448;2022-08-01T08:00:23;11.60;;;2.40;;
59040;SDS011;44825;53.200;6.448;2022-08-01T08:02:52;13.65;;;2.15;;
59040;SDS011;44825;53.200;6.448;2022-08-01T08:05:20;10.98;;;2.00;;
59040;SDS011;44825;53.200;6.448;2022-08-01T08:07:49;9.60;;;1.83;;
59040;SDS011;44825;53.200;6.448;2022-08-01T08:10:16;11.15;;;2.22;;
59040;SDS011;44825;53.200;6.448;2022-08-01T08:12:43;11.10;;;1.70;;
59040;SDS011;44825;53.200;6.448;2022-08-01T08:15:11;18.90;;;2.50;;
59040;SDS011;44825;53.200;6.448;2022-08-01T08:17:39;14.50;;;2.17;;
59040;SDS011;44825;53.200;6.448;2022-08-01T08:20:07;9.52;;;2.03;;
59040;SDS011;44825;53.200;6.448;2022-08-01T08:22:35;12.18;;;2.42;;
59040;SDS011;44825;53.200;6.448;2022-08-01T08:25:05;10.63;;;2.67;;
59040;SDS011;44825;53.200;6.448;2022-08-01T08:27:33;7.03;;;1.90;;
59040;SDS011;44825;53.200;6.448;2022-08-01T08:30:01;11.65;;;2.10;;
59040;SDS011;44825;53.200;6.448;2022-08-01T08:32:31;10.35;;;1.80;;
59040;SDS011;44825;53.200;6.448;2022-08-01T08:34:58;10.88;;;2.08;;
59040;SDS011;44825;53.200;6.448;2022-08-01T08:37:25;10.43;;;1.98;;
59040;SDS011;44825;53.200;6.448;2022-08-01T08:39:53;11.73;;;2.17;;
59040;SDS011;44825;53.200;6.448;2022-08-01T08:42:21;9.50;;;2.20;;
59040;SDS011;44825;53.200;6.448;2022-08-01T08:44:50;12.32;;;2.17;;
59040;SDS011;44825;53.200;6.448;2022-08-01T08:47:20;11.30;;;2.15;;
59040;SDS011;44825;53.200;6.448;2022-08-01T08:49:50;7.10;;;1.63;;
59040;SDS011;44825;53.200;6.448;2022-08-01T08:52:18;15.23;;;2.13;;
59040;SDS011;44825;53.200;6.448;2022-08-01T08:54:48;10.77;;;1.63;;
59040;SDS011;44825;53.200;6.448;2022-08-01T08:57:17;14.40;;;2.47;;
59040;SDS011;44825;53.200;6.448;2022-08-01T08:59:47;7.85;;;2.05;;
59040;SDS011;44825;53.200;6.448;2022-08-01T09:02:17;8.02;;;1.80;;
59040;SDS011;44825;53.200;6.448;2022-08-01T09:04:45;11.43;;;1.73;;
59040;SDS011;44825;53.200;6.448;2022-08-01T09:07:14;11.18;;;1.77;;
59040;SDS011;44825;53.200;6.448;2022-08-01T09:09:41;9.52;;;1.83;;
59040;SDS011;44825;53.200;6.448;2022-08-01T09:12:09;10.48;;;1.60;;
59040;SDS011;44825;53.200;6.448;2022-08-01T09:14:43;11.10;;;1.63;;
59040;SDS011;44825;53.200;6.448;2022-08-01T09:17:13;10.30;;;1.85;;
59040;SDS011;44825;53.200;6.448;2022-08-01T09:19:42;11.75;;;1.70;;
59040;SDS011;44825;53.200;6.448;2022-08-01T09:22:11;9.73;;;1.67;;
59040;SDS011;44825;53.200;6.448;2022-08-01T09:24:39;11.65;;;1.90;;
59040;SDS011;44825;53.200;6.448;2022-08-01T09:27:18;7.93;;;1.98;;
59040;SDS011;44825;53.200;6.448;2022-08-01T09:29:46;7.78;;;1.83;;
59040;SDS011;44825;53.200;6.448;2022-08-01T09:32:15;10.18;;;2.13;;
59040;SDS011;44825;53.200;6.448;2022-08-01T09:34:42;8.07;;;1.65;;
59040;SDS011;44825;53.200;6.448;2022-08-01T09:37:12;11.05;;;1.60;;
59040;SDS011;44825;53.200;6.448;2022-08-01T09:39:43;11.10;;;2.25;;
59040;SDS011;44825;53.200;6.448;2022-08-01T09:44:56;8.77;;;1.52;;
59040;SDS011;44825;53.200;6.448;2022-08-01T09:47:36;10.35;;;1.65;;
59040;SDS011;44825;53.200;6.448;2022-08-01T09:50:04;8.10;;;1.77;;
59040;SDS011;44825;53.200;6.448;2022-08-01T09:52:32;7.88;;;1.65;;
59040;SDS011;44825;53.200;6.448;2022-08-01T09:55:00;8.50;;;1.60;;
59040;SDS011;44825;53.200;6.448;2022-08-01T09:57:29;6.32;;;1.35;;
59040;SDS011;44825;53.200;6.448;2022-08-01T09:59:58;10.35;;;1.98;;
59040;SDS011;44825;53.200;6.448;2022-08-01T10:02:29;9.48;;;2.25;;
59040;SDS011;44825;53.200;6.448;2022-08-01T10:04:57;10.98;;;1.40;;
59040;SDS011;44825;53.200;6.448;2022-08-01T10:07:25;8.27;;;1.45;;
59040;SDS011;44825;53.200;6.448;2022-08-01T10:09:53;7.82;;;1.40;;
59040;SDS011;44825;53.200;6.448;2022-08-01T10:12:21;8.68;;;1.90;;
59040;SDS011;44825;53.200;6.448;2022-08-01T10:14:50;9.63;;;2.35;;
59040;SDS011;44825;53.200;6.448;2022-08-01T10:17:20;9.98;;;2.47;;
59040;SDS011;44825;53.200;6.448;2022-08-01T10:19:52;9.00;;;1.70;;
59040;SDS011;44825;53.200;6.448;2022-08-01T10:22:22;6.15;;;1.63;;
59040;SDS011;44825;53.200;6.448;2022-08-01T10:24:54;8.63;;;2.00;;
59040;SDS011;44825;53.200;6.448;2022-08-01T10:27:22;9.70;;;1.50;;
59040;SDS011;44825;53.200;6.448;2022-08-01T10:29:51;8.23;;;1.67;;
59040;SDS011;44825;53.200;6.448;2022-08-01T10:32:23;9.65;;;1.60;;
59040;SDS011;44825;53.200;6.448;2022-08-01T10:34:50;8.02;;;1.35;;
59040;SDS011;44825;53.200;6.448;2022-08-01T10:37:20;9.90;;;2.03;;
59040;SDS011;44825;53.200;6.448;2022-08-01T10:39:47;12.35;;;1.73;;
59040;SDS011;44825;53.200;6.448;2022-08-01T10:42:16;8.40;;;1.42;;
59040;SDS011;44825;53.200;6.448;2022-08-01T10:44:44;9.98;;;1.50;;
59040;SDS011;44825;53.200;6.448;2022-08-01T10:47:14;6.70;;;1.25;;
59040;SDS011;44825;53.200;6.448;2022-08-01T10:49:45;6.97;;;1.48;;
59040;SDS011;44825;53.200;6.448;2022-08-01T10:52:17;10.77;;;1.35;;
59040;SDS011;44825;53.200;6.448;2022-08-01T10:54:46;13.48;;;1.92;;
59040;SDS011;44825;53.200;6.448;2022-08-01T10:57:14;8.85;;;1.65;;
59040;SDS011;44825;53.200;6.448;2022-08-01T10:59:49;6.53;;;1.35;;
59040;SDS011;44825;53.200;6.448;2022-08-01T11:02:25;6.85;;;1.10;;
59040;SDS011;44825;53.200;6.448;2022-08-01T11:04:55;7.68;;;1.50;;
59040;SDS011;44825;53.200;6.448;2022-08-01T11:07:37;7.97;;;1.45;;
59040;SDS011;44825;53.200;6.448;2022-08-01T11:10:11;7.10;;;1.30;;
59040;SDS011;44825;53.200;6.448;2022-08-01T11:12:46;8.70;;;1.40;;
59040;SDS011;44825;53.200;6.448;2022-08-01T11:15:20;7.05;;;1.20;;
59040;SDS011;44825;53.200;6.448;2022-08-01T11:17:51;9.93;;;1.88;;
59040;SDS011;44825;53.200;6.448;2022-08-01T11:20:19;5.35;;;1.30;;
59040;SDS011;44825;53.200;6.448;2022-08-01T11:26:08;5.97;;;1.55;;
59040;SDS011;44825;53.200;6.448;2022-08-01T11:28:40;6.28;;;1.40;;
59040;SDS011;44825;53.200;6.448;2022-08-01T11:31:27;7.88;;;1.38;;
59040;SDS011;44825;53.200;6.448;2022-08-01T11:33:55;5.13;;;1.23;;
59040;SDS011;44825;53.200;6.448;2022-08-01T11:36:23;7.20;;;1.10;;
59040;SDS011;44825;53.200;6.448;2022-08-01T11:41:44;10.60;;;2.45;;
59040;SDS011;44825;53.200;6.448;2022-08-01T11:44:14;7.70;;;1.52;;
59040;SDS011;44825;53.200;6.448;2022-08-01T11:46:47;7.07;;;1.13;;
59040;SDS011;44825;53.200;6.448;2022-08-01T11:49:22;8.35;;;1.17;;
59040;SDS011;44825;53.200;6.448;2022-08-01T11:51:58;8.45;;;1.80;;
59040;SDS011;44825;53.200;6.448;2022-08-01T11:54:28;6.95;;;1.80;;
59040;SDS011;44825;53.200;6.448;2022-08-01T11:56:59;8.98;;;1.73;;
59040;SDS011;44825;53.200;6.448;2022-08-01T11:59:28;6.28;;;1.00;;
59040;SDS011;44825;53.200;6.448;2022-08-01T12:02:02;9.10;;;1.30;;
59040;SDS011;44825;53.200;6.448;2022-08-01T12:04:44;6.50;;;1.45;;
59040;SDS011;44825;53.200;6.448;2022-08-01T12:07:12;8.13;;;1.30;;
59040;SDS011;44825;53.200;6.448;2022-08-01T12:09:40;6.45;;;1.17;;
59040;SDS011;44825;53.200;6.448;2022-08-01T12:12:09;6.00;;;1.60;;
59040;SDS011;44825;53.200;6.448;2022-08-01T12:14:37;7.05;;;1.48;;
59040;SDS011;44825;53.200;6.448;2022-08-01T12:17:05;6.68;;;1.35;;
59040;SDS011;44825;53.200;6.448;2022-08-01T12:19:32;6.40;;;1.65;;
59040;SDS011;44825;53.200;6.448;2022-08-01T12:22:05;10.63;;;1.80;;
59040;SDS011;44825;53.200;6.448;2022-08-01T12:24:37;9.32;;;1.67;;
59040;SDS011;44825;53.200;6.448;2022-08-01T12:27:08;5.78;;;1.30;;
59040;SDS011;44825;53.200;6.448;2022-08-01T12:29:38;7.13;;;1.02;;
59040;SDS011;44825;53.200;6.448;2022-08-01T12:32:23;9.20;;;1.77;;
59040;SDS011;44825;53.200;6.448;2022-08-01T12:34:53;8.05;;;1.20;;
59040;SDS011;44825;53.200;6.448;2022-08-01T12:37:21;6.97;;;1.40;;
59040;SDS011;44825;53.200;6.448;2022-08-01T12:39:49;10.20;;;1.70;;
59040;SDS011;44825;53.200;6.448;2022-08-01T12:42:18;6.75;;;1.20;;
59040;SDS011;44825;53.200;6.448;2022-08-01T12:44:46;5.85;;;1.63;;
59040;SDS011;44825;53.200;6.448;2022-08-01T12:47:17;6.85;;;1.10;;
59040;SDS011;44825;53.200;6.448;2022-08-01T12:49:45;6.22;;;1.73;;
59040;SDS011;44825;53.200;6.448;2022-08-01T12:52:14;6.55;;;1.45;;
59040;SDS011;44825;53.200;6.448;2022-08-01T12:57:36;7.30;;;1.40;;
59040;SDS011;44825;53.200;6.448;2022-08-01T13:00:06;7.03;;;1.40;;
59040;SDS011;44825;53.200;6.448;2022-08-01T13:02:44;5.93;;;1.50;;
59040;SDS011;44825;53.200;6.448;2022-08-01T13:05:12;9.35;;;1.80;;
59040;SDS011;44825;53.200;6.448;2022-08-01T13:07:44;9.23;;;1.45;;
59040;SDS011;44825;53.200;6.448;2022-08-01T13:10:13;6.80;;;1.80;;
59040;SDS011;44825;53.200;6.448;2022-08-01T13:12:54;6.63;;;1.58;;
59040;SDS011;44825;53.200;6.448;2022-08-01T13:15:25;9.07;;;1.95;;
59040;SDS011;44825;53.200;6.448;2022-08-01T13:17:56;7.97;;;1.65;;
59040;SDS011;44825;53.200;6.448;2022-08-01T13:20:25;5.85;;;1.25;;
59040;SDS011;44825;53.200;6.448;2022-08-01T13:23:09;4.93;;;1.55;;
59040;SDS011;44825;53.200;6.448;2022-08-01T13:25:50;10.95;;;1.80;;
59040;SDS011;44825;53.200;6.448;2022-08-01T13:28:21;6.07;;;1.77;;
59040;SDS011;44825;53.200;6.448;2022-08-01T13:30:54;4.90;;;1.17;;
59040;SDS011;44825;53.200;6.448;2022-08-01T13:33:22;8.57;;;1.65;;
59040;SDS011;44825;53.200;6.448;2022-08-01T13:35:51;6.90;;;1.55;;
59040;SDS011;44825;53.200;6.448;2022-08-01T13:38:20;9.32;;;1.40;;
59040;SDS011;44825;53.200;6.448;2022-08-01T13:41:08;5.80;;;1.63;;
59040;SDS011;44825;53.200;6.448;2022-08-01T13:43:37;5.93;;;1.20;;
59040;SDS011;44825;53.200;6.448;2022-08-01T13:46:05;7.13;;;1.85;;
59040;SDS011;44825;53.200;6.448;2022-08-01T13:48:32;10.52;;;1.92;;
59040;SDS011;44825;53.200;6.448;2022-08-01T13:51:00;5.30;;;1.52;;
59040;SDS011;44825;53.200;6.448;2022-08-01T13:53:27;6.82;;;1.75;;
59040;SDS011;44825;53.200;6.448;2022-08-01T13:55:55;7.22;;;1.73;;
59040;SDS011;44825;53.200;6.448;2022-08-01T13:58:23;7.03;;;1.00;;
59040;SDS011;44825;53.200;6.448;2022-08-01T14:00:52;5.55;;;1.23;;
59040;SDS011;44825;53.200;6.448;2022-08-01T14:03:19;8.07;;;1.30;;
59040;SDS011;44825;53.200;6.448;2022-08-01T14:05:46;8.77;;;1.92;;
59040;SDS011;44825;53.200;6.448;2022-08-01T14:08:14;9.48;;;1.80;;
59040;SDS011;44825;53.200;6.448;2022-08-01T14:10:41;7.85;;;1.52;;
59040;SDS011;44825;53.200;6.448;2022-08-01T14:13:09;7.78;;;1.90;;
59040;SDS011;44825;53.200;6.448;2022-08-01T14:15:36;13.80;;;2.05;;
59040;SDS011;44825;53.200;6.448;2022-08-01T14:18:05;7.90;;;1.48;;
59040;SDS011;44825;53.200;6.448;2022-08-01T14:20:33;6.30;;;1.38;;
59040;SDS011;44825;53.200;6.448;2022-08-01T14:23:02;9.45;;;1.52;;
59040;SDS011;44825;53.200;6.448;2022-08-01T14:25:29;5.70;;;1.20;;
59040;SDS011;44825;53.200;6.448;2022-08-01T14:27:57;7.95;;;1.50;;
59040;SDS011;44825;53.200;6.448;2022-08-01T14:30:24;7.93;;;2.05;;
59040;SDS011;44825;53.200;6.448;2022-08-01T14:32:51;7.95;;;1.50;;
59040;SDS011;44825;53.200;6.448;2022-08-01T14:35:20;5.88;;;1.13;;
59040;SDS011;44825;53.200;6.448;2022-08-01T14:37:48;6.80;;;1.33;;
59040;SDS011;44825;53.200;6.448;2022-08-01T14:40:15;6.97;;;1.55;;
59040;SDS011;44825;53.200;6.448;2022-08-01T14:42:43;9.00;;;1.67;;
59040;SDS011;44825;53.200;6.448;2022-08-01T14:45:10;8.70;;;1.60;;
59040;SDS011;44825;53.200;6.448;2022-08-01T14:47:38;9.20;;;1.55;;
59040;SDS011;44825;53.200;6.448;2022-08-01T14:50:07;10.85;;;2.40;;
59040;SDS011;44825;53.200;6.448;2022-08-01T14:52:38;10.38;;;2.22;;
59040;SDS011;44825;53.200;6.448;2022-08-01T14:55:07;9.75;;;1.70;;
59040;SDS011;44825;53.200;6.448;2022-08-01T14:57:35;7.60;;;1.83;;
59040;SDS011;44825;53.200;6.448;2022-08-01T15:00:04;7.47;;;1.75;;
59040;SDS011;44825;53.200;6.448;2022-08-01T15:02:35;15.05;;;1.80;;
59040;SDS011;44825;53.200;6.448;2022-08-01T15:05:02;10.85;;;1.77;;